ěÝzenÝ letovÚho provozu ╚eskÚ republiky
Letiste: LKKB Aktualizace: 10.05.2021 04:57:23  UTC
 METAR LKKB 10.05. 05:00 ...
METAR LKKB 100500Z 09007KT CAVOK 13/04 Q1010 NOSIG RMK BLU BLU=
 TAF LKKB 09.05. 23:00 ...
TAF LKKB 092300Z 1000/1100 13008KT CAVOK=